createdAt,value
2022-11-10T00:04:22.903Z,1009.9
2022-11-10T00:09:22.704Z,1009.9
2022-11-10T00:14:21.993Z,1010.2
2022-11-10T00:19:22.273Z,1010.2
2022-11-10T00:24:22.568Z,1010.2
2022-11-10T00:29:22.507Z,1010.2
2022-11-10T00:34:22.828Z,1010.3
2022-11-10T00:39:22.176Z,1010.3
2022-11-10T00:44:21.914Z,1010.5
2022-11-10T00:49:22.181Z,1010.5
2022-11-10T00:54:22.337Z,1010.6
2022-11-10T00:59:22.039Z,1010.6
2022-11-10T01:04:22.478Z,1010.7
2022-11-10T01:09:22.691Z,1010.7
2022-11-10T01:14:22.046Z,1010.8
2022-11-10T01:19:22.342Z,1010.8
2022-11-10T01:24:21.997Z,1010.9
2022-11-10T01:29:22.246Z,1010.9
2022-11-10T01:34:22.154Z,1011
2022-11-10T01:39:22.377Z,1011
2022-11-10T01:44:22.604Z,1011.2
2022-11-10T01:49:25.376Z,1011.2
2022-11-10T01:54:22.638Z,1011.3
2022-11-10T01:59:22.913Z,1011.3
2022-11-10T02:04:22.722Z,1011.5
2022-11-10T02:09:25.292Z,1011.5
2022-11-10T02:14:22.419Z,1011.7
2022-11-10T02:19:22.958Z,1011.7
2022-11-10T02:24:22.143Z,1011.7
2022-11-10T02:29:22.469Z,1011.7
2022-11-10T02:34:22.302Z,1011.8
2022-11-10T02:39:22.497Z,1011.8
2022-11-10T02:44:22.855Z,1011.9
2022-11-10T02:49:22.065Z,1011.9
2022-11-10T02:54:22.545Z,1012
2022-11-10T02:59:22.453Z,1012
2022-11-10T03:04:22.662Z,1012.2
2022-11-10T03:09:22.473Z,1012.2
2022-11-10T03:14:22.123Z,1012.3
2022-11-10T03:19:22.835Z,1012.3
2022-11-10T03:24:22.482Z,1012.3
2022-11-10T03:29:22.504Z,1012.3
2022-11-10T03:34:22.482Z,1012.4
2022-11-10T03:39:23.005Z,1012.4
2022-11-10T03:44:22.631Z,1012.7
2022-11-10T03:49:22.929Z,1012.7
2022-11-10T03:54:22.790Z,1012.7
2022-11-10T03:59:22.258Z,1012.7
2022-11-10T04:04:22.785Z,1012.8
2022-11-10T04:09:22.281Z,1012.8
2022-11-10T04:14:22.299Z,1012.8
2022-11-10T04:19:22.531Z,1012.8
2022-11-10T04:24:23.125Z,1012.9
2022-11-10T04:29:22.624Z,1012.9
2022-11-10T04:34:22.629Z,1013.2
2022-11-10T04:39:22.936Z,1013.2
2022-11-10T04:44:22.232Z,1013.4
2022-11-10T04:49:22.974Z,1013.4
2022-11-10T04:54:22.131Z,1013.4
2022-11-10T04:59:22.504Z,1013.4
2022-11-10T05:04:22.800Z,1013.4
2022-11-10T05:09:22.577Z,1013.4
2022-11-10T05:14:22.821Z,1013.6
2022-11-10T05:19:22.561Z,1013.6
2022-11-10T05:24:23.123Z,1013.7
2022-11-10T05:29:22.886Z,1013.7
2022-11-10T05:34:22.365Z,1013.9
2022-11-10T05:39:22.606Z,1013.9
2022-11-10T05:44:22.944Z,1014
2022-11-10T05:49:22.115Z,1014
2022-11-10T05:54:22.549Z,1014
2022-11-10T05:59:22.892Z,1014
2022-11-10T06:04:22.998Z,1014.1
2022-11-10T06:09:22.545Z,1014.1
2022-11-10T06:14:22.710Z,1014.4
2022-11-10T06:19:23.063Z,1014.4
2022-11-10T06:24:22.493Z,1014.5
2022-11-10T06:29:26.659Z,1014.5
2022-11-10T06:34:22.456Z,1014.8
2022-11-10T06:39:22.689Z,1014.8
2022-11-10T06:44:22.924Z,1015.1
2022-11-10T06:49:22.756Z,1015.1
2022-11-10T06:54:23.007Z,1015.2
2022-11-10T06:59:22.175Z,1015.2
2022-11-10T07:04:23.133Z,1015.4
2022-11-10T07:09:22.508Z,1015.4
2022-11-10T07:14:22.364Z,1015.6
2022-11-10T07:19:22.606Z,1015.6
2022-11-10T07:24:22.895Z,1015.7
2022-11-10T07:29:23.086Z,1015.7
2022-11-10T07:34:22.774Z,1015.9
2022-11-10T07:39:22.564Z,1015.9
2022-11-10T07:44:22.996Z,1016.2
2022-11-10T07:49:22.496Z,1016.2
2022-11-10T07:54:22.806Z,1016.3
2022-11-10T07:59:22.310Z,1016.3
2022-11-10T08:04:22.673Z,1016.5
2022-11-10T08:09:23.223Z,1016.5
2022-11-10T08:14:22.589Z,1016.5
2022-11-10T08:19:22.960Z,1016.5
2022-11-10T08:24:22.485Z,1016.5
2022-11-10T08:29:22.705Z,1016.5
2022-11-10T08:34:22.979Z,1016.7
2022-11-10T08:39:38.135Z,1016.7
2022-11-10T08:44:22.989Z,1017
2022-11-10T08:49:22.377Z,1017
2022-11-10T08:54:23.182Z,1017.1
2022-11-10T08:59:22.393Z,1017.1
2022-11-10T09:04:22.656Z,1017.2
2022-11-10T09:09:22.601Z,1017.2
2022-11-10T09:14:22.698Z,1017.4
2022-11-10T09:19:22.997Z,1017.4
2022-11-10T09:24:24.897Z,1017.4
2022-11-10T09:29:23.047Z,1017.4
2022-11-10T09:34:22.679Z,1017.5
2022-11-10T09:39:22.963Z,1017.5
2022-11-10T09:44:23.103Z,1017.5
2022-11-10T09:49:22.523Z,1017.5
2022-11-10T09:54:22.882Z,1017.6
2022-11-10T09:59:22.552Z,1017.6
2022-11-10T10:04:22.895Z,1017.7
2022-11-10T10:09:22.793Z,1017.7
2022-11-10T10:14:22.793Z,1017.9
2022-11-10T10:19:22.708Z,1017.9
2022-11-10T10:24:23.097Z,1017.9
2022-11-10T10:29:22.803Z,1017.9
2022-11-10T10:34:23.117Z,1018
2022-11-10T10:39:22.270Z,1018
2022-11-10T10:44:23.230Z,1018.1
2022-11-10T10:49:30.106Z,1018.1
2022-11-10T10:54:22.932Z,1018.1
2022-11-10T10:59:23.114Z,1018.1
2022-11-10T11:04:22.497Z,1018.1
2022-11-10T11:09:22.911Z,1018.1
2022-11-10T11:14:22.515Z,1018.1
2022-11-10T11:19:22.800Z,1018.1
2022-11-10T11:24:23.106Z,1018.2
2022-11-10T11:29:22.476Z,1018.2
2022-11-10T11:34:23.101Z,1018.3
2022-11-10T11:39:22.363Z,1018.3
2022-11-10T11:44:22.985Z,1018.5
2022-11-10T11:49:23.236Z,1018.5
2022-11-10T11:54:22.526Z,1018.5
2022-11-10T11:59:23.026Z,1018.5
2022-11-10T12:04:22.337Z,1018.6
2022-11-10T12:09:22.605Z,1018.6
2022-11-10T12:14:22.456Z,1018.6
2022-11-10T12:19:22.679Z,1018.6
2022-11-10T12:24:22.846Z,1018.6
2022-11-10T12:29:23.264Z,1018.6
2022-11-10T12:34:22.651Z,1018.6
2022-11-10T12:39:23.019Z,1018.6
2022-11-10T12:44:23.323Z,1018.8
2022-11-10T12:49:23.168Z,1018.8
2022-11-10T12:54:22.498Z,1018.8
2022-11-10T12:59:23.008Z,1018.8
2022-11-10T13:04:23.342Z,1018.7
2022-11-10T13:09:23.224Z,1018.7
2022-11-10T13:14:22.504Z,1019.1
2022-11-10T13:19:22.754Z,1019.1
2022-11-10T13:24:23.314Z,1019.1
2022-11-10T13:29:22.641Z,1019.1
2022-11-10T13:34:23.037Z,1019.2
2022-11-10T13:39:23.259Z,1019.2
2022-11-10T13:44:22.496Z,1019.2
2022-11-10T13:49:22.726Z,1019.2
2022-11-10T13:54:22.976Z,1019.3
2022-11-10T13:59:23.205Z,1019.3
2022-11-10T14:04:22.687Z,1019.6
2022-11-10T14:09:23.049Z,1019.6
2022-11-10T14:14:23.092Z,1019.7
2022-11-10T14:19:22.815Z,1019.7
2022-11-10T14:24:23.012Z,1019.7
2022-11-10T14:29:23.556Z,1019.7
2022-11-10T14:34:23.325Z,1019.6
2022-11-10T14:39:22.952Z,1019.6
2022-11-10T14:44:23.267Z,1019.7
2022-11-10T14:49:23.329Z,1019.7
2022-11-10T14:54:22.893Z,1019.7
2022-11-10T14:59:23.174Z,1019.7
2022-11-10T15:04:22.730Z,1019.6
2022-11-10T15:09:22.758Z,1019.6
2022-11-10T15:14:23.193Z,1019.7
2022-11-10T15:19:23.534Z,1019.7
2022-11-10T15:24:22.902Z,1019.9
2022-11-10T15:29:23.313Z,1019.9
2022-11-10T15:34:23.195Z,1020.1
2022-11-10T15:39:22.944Z,1020.1
2022-11-10T15:44:23.347Z,1020.1
2022-11-10T15:49:22.841Z,1020.1
2022-11-10T15:54:23.015Z,1020.1
2022-11-10T15:59:23.359Z,1020.1
2022-11-10T16:04:22.820Z,1020.2
2022-11-10T16:09:23.331Z,1020.2
2022-11-10T16:14:22.834Z,1020.3
2022-11-10T16:19:23.346Z,1020.3
2022-11-10T16:24:22.684Z,1020.3
2022-11-10T16:29:22.893Z,1020.3
2022-11-10T16:34:24.274Z,1020.2
2022-11-10T16:39:22.824Z,1020.2
2022-11-10T16:44:25.385Z,1020.5
2022-11-10T16:49:23.017Z,1020.5
2022-11-10T16:54:23.361Z,1020.6
2022-11-10T16:59:22.696Z,1020.6
2022-11-10T17:04:23.369Z,1020.7
2022-11-10T17:09:22.671Z,1020.7
2022-11-10T17:14:22.864Z,1020.7
2022-11-10T17:19:23.034Z,1020.7
2022-11-10T17:24:23.333Z,1020.7
2022-11-10T17:29:22.759Z,1020.7
2022-11-10T17:34:23.054Z,1020.6
2022-11-10T17:39:23.039Z,1020.6
2022-11-10T17:44:23.449Z,1020.6
2022-11-10T17:49:22.737Z,1020.6
2022-11-10T17:54:23.027Z,1020.6
2022-11-10T17:59:23.359Z,1020.6
2022-11-10T18:04:22.548Z,1020.7
2022-11-10T18:09:22.823Z,1020.7
2022-11-10T18:14:23.112Z,1020.7
2022-11-10T18:19:23.330Z,1020.7
2022-11-10T18:24:23.711Z,1020.7
2022-11-10T18:29:23.036Z,1020.7
2022-11-10T18:34:23.518Z,1020.7
2022-11-10T18:39:22.714Z,1020.7
2022-11-10T18:44:22.981Z,1020.7
2022-11-10T18:49:23.057Z,1020.7
2022-11-10T18:54:23.247Z,1020.7
2022-11-10T18:59:23.428Z,1020.7
2022-11-10T19:04:22.884Z,1020.8
2022-11-10T19:09:23.188Z,1020.8
2022-11-10T19:14:22.933Z,1020.9
2022-11-10T19:19:23.211Z,1020.9
2022-11-10T19:24:28.012Z,1021
2022-11-10T19:29:22.948Z,1021
2022-11-10T19:34:23.299Z,1021.1
2022-11-10T19:39:22.607Z,1021.1
2022-11-10T19:44:22.944Z,1021.1
2022-11-10T19:49:23.152Z,1021.1
2022-11-10T19:54:23.392Z,1021.1
2022-11-10T19:59:22.934Z,1021.1
2022-11-10T20:04:23.042Z,1021.1
2022-11-10T20:09:23.305Z,1021.1
2022-11-10T20:14:23.525Z,1021.2
2022-11-10T20:19:22.770Z,1021.2
2022-11-10T20:24:23.471Z,1021.2
2022-11-10T20:29:22.849Z,1021.2
2022-11-10T20:34:23.531Z,1021.2
2022-11-10T20:39:23.040Z,1021.2
2022-11-10T20:44:23.354Z,1021.6
2022-11-10T20:49:23.272Z,1021.6
2022-11-10T20:54:22.684Z,1021.5
2022-11-10T20:59:23.014Z,1021.5
2022-11-10T21:04:23.379Z,1021.5
2022-11-10T21:09:22.976Z,1021.5
2022-11-10T21:14:23.439Z,1021.7
2022-11-10T21:19:23.124Z,1021.7
2022-11-10T21:24:22.720Z,1021.7
2022-11-10T21:29:23.030Z,1021.7
2022-11-10T21:34:23.287Z,1021.6
2022-11-10T21:39:23.131Z,1021.6
2022-11-10T21:44:23.466Z,1021.8
2022-11-10T21:49:22.770Z,1021.8
2022-11-10T21:54:23.448Z,1021.9
2022-11-10T21:59:23.590Z,1021.9
2022-11-10T22:04:22.855Z,1022
2022-11-10T22:09:30.133Z,1022
2022-11-10T22:14:23.375Z,1022.2
2022-11-10T22:19:23.586Z,1022.2
2022-11-10T22:24:22.771Z,1022.2
2022-11-10T22:29:26.106Z,1022.2
2022-11-10T22:34:23.230Z,1022.3
2022-11-10T22:39:23.455Z,1022.3
2022-11-10T22:44:25.153Z,1022.2
2022-11-10T22:49:23.624Z,1022.2
2022-11-10T22:54:22.751Z,1022.2
2022-11-10T22:59:23.111Z,1022.2
2022-11-10T23:04:23.580Z,1022.3
2022-11-10T23:09:23.024Z,1022.3
2022-11-10T23:14:23.583Z,1022.4
2022-11-10T23:19:23.055Z,1022.4
2022-11-10T23:24:23.370Z,1022.5
2022-11-10T23:29:23.548Z,1022.5
2022-11-10T23:34:22.981Z,1022.6
2022-11-10T23:39:23.166Z,1022.6
2022-11-10T23:44:23.550Z,1022.7
2022-11-10T23:49:23.610Z,1022.7
2022-11-10T23:54:23.007Z,1022.7
2022-11-10T23:59:24.126Z,1022.7
